Time;durP1;ratioP1;P1;durP2;ratioP2;P2;SDS_P1;SDS_P2;PMS_P1;PMS_P2;Temp;Humidity;BMP_temperature;BMP_pressure;BME280_temperature;BME280_humidity;BME280_pressure;Samples;Min_cycle;Max_cycle;Signal;HPM_P1;HPM_P2
2023/04/14 07:39:57;;;;;;;2.95;0.85;;;17.30;99.50;;;;;;2379710;23;20235;-72
2023/04/14 07:42:26;;;;;;;2.65;0.93;;;17.80;99.30;;;;;;4858156;29;20671;-72
2023/04/14 07:44:53;;;;;;;2.38;1.00;;;18.10;98.90;;;;;;4861802;29;20223;-73
2023/04/14 07:47:19;;;;;;;6.78;0.90;;;18.10;99.30;;;;;;4861631;29;20250;-73
2023/04/14 07:49:46;;;;;;;1.48;0.70;;;18.50;98.40;;;;;;4861661;29;20234;-72
2023/04/14 07:52:13;;;;;;;1.60;0.60;;;17.30;99.40;;;;;;4862033;29;20298;-73
2023/04/14 07:54:40;;;;;;;3.90;0.90;;;17.50;98.90;;;;;;4862037;29;20253;-72
2023/04/14 07:57:09;;;;;;;3.22;0.60;;;17.10;99.20;;;;;;4861276;29;20246;-73
2023/04/14 07:59:41;;;;;;;2.58;0.70;;;17.10;99.50;;;;;;4861418;29;20223;-73
2023/04/14 08:02:08;;;;;;;1.48;0.70;;;17.20;99.60;;;;;;4861590;29;20303;-73
2023/04/14 08:04:35;;;;;;;2.00;0.70;;;17.30;99.40;;;;;;4861662;29;20250;-74
2023/04/14 08:07:02;;;;;;;1.00;0.50;;;17.80;98.70;;;;;;4861548;29;20276;-73
2023/04/14 08:09:29;;;;;;;1.45;0.80;;;17.90;99.00;;;;;;4861613;29;20563;-73
2023/04/14 08:11:56;;;;;;;2.78;0.73;;;18.20;98.60;;;;;;4861329;29;20216;-73
2023/04/14 08:14:23;;;;;;;1.83;0.80;;;18.20;97.90;;;;;;4861681;29;20255;-72
2023/04/14 08:16:51;;;;;;;1.35;0.50;;;18.10;98.10;;;;;;4861346;29;20238;-73
2023/04/14 08:19:18;;;;;;;1.63;0.60;;;18.10;98.30;;;;;;4861052;29;20707;-73
2023/04/14 08:21:44;;;;;;;1.98;0.70;;;17.90;98.50;;;;;;4861720;29;20572;-72
2023/04/14 08:24:11;;;;;;;1.15;0.50;;;17.80;98.10;;;;;;4861625;29;20212;-73
2023/04/14 08:26:38;;;;;;;2.60;0.43;;;18.20;98.70;;;;;;4861217;29;20235;-73
2023/04/14 08:29:05;;;;;;;1.90;0.50;;;18.50;97.50;;;;;;4861167;29;20617;-73
2023/04/14 08:31:33;;;;;;;0.85;0.50;;;18.80;97.60;;;;;;4861194;29;20208;-73
2023/04/14 08:34:01;;;;;;;1.75;0.50;;;19.10;97.70;;;;;;4860914;29;20660;-73
2023/04/14 08:36:28;;;;;;;2.05;0.65;;;19.10;96.70;;;;;;4854950;29;20592;-74
2023/04/14 08:38:55;;;;;;;1.65;0.57;;;18.90;97.70;;;;;;4859725;29;20240;-73
2023/04/14 08:41:22;;;;;;;1.15;0.60;;;18.50;97.00;;;;;;4859306;29;20231;-73
2023/04/14 08:43:49;;;;;;;2.55;0.80;;;18.40;96.60;;;;;;4859967;29;20216;-73
2023/04/14 08:46:16;;;;;;;1.00;0.40;;;17.90;97.40;;;;;;4859775;29;20220;-73
2023/04/14 08:48:46;;;;;;;1.05;0.50;;;17.70;97.80;;;;;;4859667;29;20628;-73
2023/04/14 08:51:31;;;;;;;1.40;0.98;;;17.90;97.40;;;;;;4860097;29;20260;-72
2023/04/14 08:53:59;;;;;;;1.38;0.43;;;17.20;97.40;;;;;;4859355;29;20207;-73
2023/04/14 08:56:33;;;;;;;1.95;0.55;;;16.70;98.20;;;;;;4859450;29;20711;-74
2023/04/14 08:59:00;;;;;;;2.03;0.40;;;16.70;98.70;;;;;;4859463;29;20261;-75
2023/04/14 09:01:29;;;;;;;2.15;0.45;;;16.40;98.80;;;;;;4859784;29;20303;-73
2023/04/14 09:03:56;;;;;;;1.75;0.63;;;16.70;98.40;;;;;;4859654;29;20252;-75
2023/04/14 09:06:26;;;;;;;2.42;0.50;;;16.90;98.80;;;;;;4858934;29;20675;-73
2023/04/14 09:08:54;;;;;;;1.23;0.60;;;17.20;98.60;;;;;;4861448;29;20275;-74
2023/04/14 09:11:21;;;;;;;3.40;0.50;;;17.90;98.40;;;;;;4863349;29;20216;-73
2023/04/14 09:13:50;;;;;;;0.55;0.40;;;17.80;97.00;;;;;;4863152;29;20212;-74
2023/04/14 09:16:18;;;;;;;3.20;0.52;;;17.30;98.30;;;;;;4862821;29;20208;-73
2023/04/14 09:18:46;;;;;;;3.30;0.60;;;16.80;98.70;;;;;;4862356;29;20239;-73
2023/04/14 09:21:13;;;;;;;0.93;0.50;;;17.10;98.80;;;;;;4863149;29;20211;-73
2023/04/14 09:23:41;;;;;;;3.38;0.68;;;17.20;99.10;;;;;;4862920;29;20208;-74
2023/04/14 09:26:09;;;;;;;1.48;0.63;;;17.30;98.40;;;;;;4863193;29;20218;-73
2023/04/14 09:28:36;;;;;;;1.45;0.55;;;17.30;98.50;;;;;;4866167;29;20220;-71
2023/04/14 09:31:03;;;;;;;2.08;0.80;;;16.90;98.40;;;;;;4864257;29;20667;-72
2023/04/14 09:33:30;;;;;;;1.53;0.70;;;16.40;99.50;;;;;;4864376;29;20682;-72
2023/04/14 09:35:57;;;;;;;1.40;0.90;;;15.90;99.40;;;;;;4862571;29;20212;-73
2023/04/14 09:38:34;;;;;;;1.00;0.50;;;15.30;99.90;;;;;;4863233;29;20311;-73
2023/04/14 09:41:03;;;;;;;2.03;0.57;;;14.80;99.90;;;;;;4863717;29;20333;-72
2023/04/14 09:43:30;;;;;;;0.60;0.40;;;14.80;99.90;;;;;;4860627;29;20208;-72
2023/04/14 09:46:03;;;;;;;3.70;0.73;;;15.00;99.90;;;;;;4868326;29;20216;-73
2023/04/14 09:48:30;;;;;;;2.40;0.40;;;14.90;99.90;;;;;;4865727;29;20235;-72
2023/04/14 09:50:59;;;;;;;1.23;0.53;;;14.70;99.90;;;;;;4863090;29;20239;-73
2023/04/14 09:53:27;;;;;;;1.47;0.60;;;14.70;99.90;;;;;;4861011;29;20212;-74
2023/04/14 09:55:55;;;;;;;1.90;0.57;;;14.40;99.90;;;;;;4857826;29;20541;-72
2023/04/14 09:58:23;;;;;;;2.60;0.60;;;14.40;99.90;;;;;;4862098;29;20590;-72
2023/04/14 10:00:51;;;;;;;1.83;0.80;;;14.50;99.90;;;;;;4862940;29;20646;-73
2023/04/14 10:03:33;;;;;;;1.47;0.47;;;14.90;99.90;;;;;;4862865;29;20214;-72
2023/04/14 10:06:00;;;;;;;1.70;0.47;;;15.20;99.90;;;;;;4862328;29;20260;-73
2023/04/14 10:08:35;;;;;;;1.63;0.47;;;14.90;99.90;;;;;;4860119;29;20275;-72
2023/04/14 10:11:15;;;;;;;1.20;0.37;;;14.50;99.90;;;;;;4862077;29;20219;-73
2023/04/14 10:13:43;;;;;;;1.30;0.60;;;14.70;99.90;;;;;;4862355;29;20223;-71
2023/04/14 10:16:10;;;;;;;3.17;0.80;;;14.60;99.90;;;;;;4862495;29;20219;-72
2023/04/14 10:18:37;;;;;;;1.43;0.60;;;14.30;99.90;;;;;;4862577;29;20244;-71
2023/04/14 10:21:05;;;;;;;1.60;0.53;;;14.00;99.90;;;;;;4863045;29;20754;-71
2023/04/14 10:23:32;;;;;;;1.53;0.50;;;14.10;99.90;;;;;;4863270;29;20212;-72
2023/04/14 10:26:00;;;;;;;3.40;0.70;;;14.30;99.90;;;;;;4862898;29;20219;-71
2023/04/14 10:28:29;;;;;;;1.90;0.40;;;14.70;99.90;;;;;;4863059;29;20240;-72
2023/04/14 10:30:59;;;;;;;1.80;0.43;;;15.00;99.90;;;;;;4862784;29;20674;-72
2023/04/14 10:33:26;;;;;;;3.33;0.60;;;15.00;99.90;;;;;;4863031;29;20220;-72
2023/04/14 10:35:59;;;;;;;1.93;0.60;;;14.70;99.90;;;;;;4862864;29;20223;-72
2023/04/14 10:38:38;;;;;;;2.07;0.50;;;14.60;99.90;;;;;;4862554;29;20323;-72
2023/04/14 10:41:06;;;;;;;2.10;0.73;;;14.90;99.90;;;;;;4862521;29;20671;-72
2023/04/14 10:43:35;;;;;;;1.33;0.40;;;15.40;99.90;;;;;;4862387;29;20216;-72
2023/04/14 10:46:05;;;;;;;0.83;0.33;;;15.60;99.90;;;;;;4863873;29;20698;-71
2023/04/14 10:48:34;;;;;;;1.07;0.30;;;15.60;99.90;;;;;;4862477;29;20215;-71
2023/04/14 10:51:03;;;;;;;0.83;0.40;;;15.70;99.90;;;;;;4861862;29;20208;-71
2023/04/14 10:53:38;;;;;;;2.33;0.70;;;15.40;99.90;;;;;;4844206;29;20273;-71
2023/04/14 10:56:06;;;;;;;3.07;0.50;;;15.20;99.90;;;;;;4859946;29;20272;-72
2023/04/14 10:58:36;;;;;;;1.33;0.47;;;15.30;99.90;;;;;;4862589;29;20246;-71
2023/04/14 11:01:24;;;;;;;3.80;0.40;;;15.60;99.90;;;;;;4862487;29;20239;-71
2023/04/14 11:03:52;;;;;;;2.87;0.50;;;15.70;99.90;;;;;;4862199;29;20223;-71
2023/04/14 11:06:50;;;;;;;2.23;0.43;;;15.60;99.90;;;;;;4862541;29;20212;-71
2023/04/14 11:09:32;;;;;;;1.13;0.40;;;15.40;99.90;;;;;;4860611;29;20683;-71
2023/04/14 11:12:04;;;;;;;1.17;0.30;;;15.60;99.90;;;;;;4862175;29;20574;-73
2023/04/14 11:14:32;;;;;;;2.70;0.57;;;15.60;99.90;;;;;;4862235;29;20208;-71
2023/04/14 11:17:02;;;;;;;1.07;0.37;;;15.70;99.40;;;;;;4859168;29;20239;-71
2023/04/14 11:19:29;;;;;;;1.63;0.37;;;15.60;99.70;;;;;;4860727;29;20236;-73
2023/04/14 11:21:56;;;;;;;1.43;0.63;;;15.20;99.80;;;;;;4861161;29;20575;-70
2023/04/14 11:24:23;;;;;;;1.30;0.40;;;15.00;99.80;;;;;;4855764;29;20222;-71
2023/04/14 11:26:52;;;;;;;0.70;0.30;;;15.00;99.90;;;;;;4860651;29;21655;-71
2023/04/14 11:29:19;;;;;;;0.87;0.40;;;15.20;99.80;;;;;;4860428;29;20211;-70
2023/04/14 11:31:46;;;;;;;2.33;0.50;;;15.10;99.60;;;;;;4859990;29;20234;-71
2023/04/14 11:34:15;;;;;;;1.53;0.40;;;15.40;99.50;;;;;;4860269;29;20220;-71
2023/04/14 11:36:42;;;;;;;2.57;0.40;;;15.70;99.90;;;;;;4860298;29;20647;-71
2023/04/14 11:39:09;;;;;;;2.00;0.30;;;16.00;98.80;;;;;;4860698;29;20236;-71
2023/04/14 11:41:36;;;;;;;0.80;0.23;;;15.70;98.60;;;;;;4860427;29;20652;-70
2023/04/14 11:44:03;;;;;;;1.33;0.40;;;15.80;98.30;;;;;;4861477;29;20302;-70
2023/04/14 11:46:30;;;;;;;1.93;0.47;;;15.80;99.10;;;;;;4861797;29;20232;-70
2023/04/14 11:48:58;;;;;;;0.70;0.30;;;15.80;98.50;;;;;;4861319;29;20583;-70
2023/04/14 11:51:32;;;;;;;0.53;0.23;;;15.60;98.00;;;;;;4861291;29;20629;-70
2023/04/14 11:54:00;;;;;;;0.83;0.40;;;15.50;98.50;;;;;;4861026;29;20297;-70
2023/04/14 11:56:27;;;;;;;0.50;0.30;;;15.60;97.70;;;;;;4861045;29;20327;-71
2023/04/14 11:59:00;;;;;;;1.23;0.30;;;15.40;98.60;;;;;;4861439;29;20731;-70
2023/04/14 12:01:28;;;;;;;0.53;0.30;;;15.30;98.80;;;;;;4861543;29;20218;-70
2023/04/14 12:03:56;;;;;;;1.10;0.40;;;15.20;98.50;;;;;;4860444;29;20212;-71
2023/04/14 12:06:23;;;;;;;1.27;0.30;;;15.30;98.70;;;;;;4860989;29;20223;-70
2023/04/14 12:08:55;;;;;;;1.40;0.30;;;15.50;98.30;;;;;;4861405;29;20227;-70
2023/04/14 12:11:22;;;;;;;0.47;0.30;;;15.60;98.20;;;;;;4861381;29;20264;-71
2023/04/14 12:13:51;;;;;;;1.60;0.27;;;15.50;98.00;;;;;;4860983;29;20209;-71
2023/04/14 12:16:18;;;;;;;1.73;0.30;;;15.60;98.40;;;;;;4860885;29;20227;-71
2023/04/14 12:18:47;;;;;;;2.17;0.23;;;15.80;98.00;;;;;;4861034;29;20214;-72
2023/04/14 12:21:18;;;;;;;2.97;0.40;;;15.90;97.80;;;;;;4860937;29;20220;-71
2023/04/14 12:23:48;;;;;;;2.57;0.40;;;15.90;97.30;;;;;;4860836;29;20207;-74
2023/04/14 12:26:16;;;;;;;1.47;0.30;;;15.90;96.90;;;;;;4860899;29;20620;-72
2023/04/14 12:28:43;;;;;;;1.23;0.30;;;15.80;97.10;;;;;;4861249;29;20218;-72
2023/04/14 12:31:11;;;;;;;2.43;0.90;;;16.10;98.30;;;;;;4860803;29;20681;-72
2023/04/14 12:33:38;;;;;;;0.53;0.30;;;16.30;97.60;;;;;;4861155;29;20208;-72
2023/04/14 12:36:06;;;;;;;0.40;0.20;;;16.40;97.10;;;;;;4861191;29;20216;-72
2023/04/14 12:38:33;;;;;;;2.10;0.40;;;16.40;97.20;;;;;;4860885;29;20672;-72
2023/04/14 12:41:00;;;;;;;1.80;0.30;;;16.50;97.60;;;;;;4860706;29;20220;-72
2023/04/14 12:43:30;;;;;;;0.70;0.27;;;16.40;96.80;;;;;;4859822;29;20405;-72
2023/04/14 12:45:58;;;;;;;1.70;0.40;;;16.50;97.50;;;;;;4861115;29;20230;-72
2023/04/14 12:48:39;;;;;;;1.47;0.40;;;16.30;97.80;;;;;;4860658;29;20723;-71
2023/04/14 12:51:11;;;;;;;0.50;0.20;;;16.40;98.00;;;;;;4860901;29;20275;-72
2023/04/14 12:53:38;;;;;;;1.70;0.30;;;16.50;97.20;;;;;;4860714;29;20212;-72
2023/04/14 12:56:07;;;;;;;0.60;0.27;;;16.70;96.90;;;;;;4860426;29;20223;-72
2023/04/14 12:58:36;;;;;;;0.67;0.30;;;16.70;97.50;;;;;;4860943;29;20276;-71
2023/04/14 13:01:04;;;;;;;3.13;0.50;;;16.80;97.40;;;;;;4860765;29;20291;-72
2023/04/14 13:03:44;;;;;;;0.67;0.30;;;16.90;97.20;;;;;;4860682;29;20218;-71
2023/04/14 13:06:12;;;;;;;2.00;0.30;;;16.50;97.70;;;;;;4860697;29;20592;-72
2023/04/14 13:08:43;;;;;;;2.23;0.50;;;16.50;97.60;;;;;;4860329;29;20216;-72
2023/04/14 13:11:10;;;;;;;0.57;0.40;;;16.20;97.60;;;;;;4860357;29;20208;-71
2023/04/14 13:13:39;;;;;;;1.03;0.30;;;16.00;97.80;;;;;;4860872;29;20619;-72
2023/04/14 13:16:06;;;;;;;0.73;0.40;;;16.00;96.60;;;;;;4860509;29;20574;-72
2023/04/14 13:18:33;;;;;;;0.90;0.27;;;15.90;97.20;;;;;;4860489;29;20211;-72
2023/04/14 13:21:02;;;;;;;1.50;0.20;;;15.80;97.40;;;;;;4860317;29;20235;-72
2023/04/14 13:23:30;;;;;;;1.07;0.33;;;15.70;96.90;;;;;;4860823;29;20220;-72
2023/04/14 13:25:57;;;;;;;0.47;0.30;;;15.80;96.70;;;;;;4860339;29;20220;-72
2023/04/14 13:28:24;;;;;;;1.70;0.57;;;15.70;96.90;;;;;;4860446;29;20564;-71
2023/04/14 13:30:53;;;;;;;0.93;0.30;;;15.80;96.80;;;;;;4860298;29;20223;-70
2023/04/14 13:33:20;;;;;;;1.17;0.40;;;16.10;97.30;;;;;;4860197;29;20571;-72
2023/04/14 13:35:47;;;;;;;1.27;0.43;;;16.30;96.70;;;;;;4860628;29;20218;-72
2023/04/14 13:38:14;;;;;;;1.77;0.50;;;16.20;96.90;;;;;;4861059;29;20242;-74
2023/04/14 13:40:41;;;;;;;0.43;0.27;;;15.90;97.20;;;;;;4860069;29;20729;-72
2023/04/14 13:43:08;;;;;;;0.40;0.30;;;15.80;97.90;;;;;;4860044;29;20216;-72
2023/04/14 13:45:35;;;;;;;1.93;0.40;;;15.40;97.90;;;;;;4860357;29;20219;-72
2023/04/14 13:48:04;;;;;;;1.93;0.30;;;15.40;97.90;;;;;;4860478;29;20228;-73
2023/04/14 13:50:31;;;;;;;0.60;0.30;;;15.40;98.10;;;;;;4860432;29;20215;-73
2023/04/14 13:52:57;;;;;;;0.40;0.30;;;15.80;98.00;;;;;;4860067;29;20268;-73
2023/04/14 13:55:24;;;;;;;0.37;0.20;;;15.90;98.00;;;;;;4862928;29;20212;-72
2023/04/14 13:57:51;;;;;;;0.97;0.30;;;15.80;97.40;;;;;;4863422;29;20232;-74
2023/04/14 14:00:18;;;;;;;0.73;0.23;;;15.70;97.50;;;;;;4863383;29;20236;-75
2023/04/14 14:02:45;;;;;;;1.13;0.30;;;15.70;97.30;;;;;;4863316;29;20302;-76
2023/04/14 14:05:15;;;;;;;1.47;0.87;;;15.80;97.80;;;;;;4863606;29;20226;-73
2023/04/14 14:07:42;;;;;;;0.83;0.40;;;15.90;97.50;;;;;;4863627;29;20288;-73
2023/04/14 14:10:09;;;;;;;3.07;0.43;;;15.90;97.60;;;;;;4863382;29;20208;-72
2023/04/14 14:12:36;;;;;;;0.53;0.20;;;16.00;97.10;;;;;;4863498;29;20248;-74
2023/04/14 14:15:03;;;;;;;1.83;0.30;;;15.90;96.80;;;;;;4863336;29;20212;-73
2023/04/14 14:17:30;;;;;;;1.23;0.30;;;15.90;97.50;;;;;;4863106;29;20240;-75
2023/04/14 14:19:57;;;;;;;1.23;0.30;;;15.90;97.70;;;;;;4863485;29;20239;-74
2023/04/14 14:22:26;;;;;;;0.53;0.20;;;15.90;97.30;;;;;;4863491;29;20575;-75
2023/04/14 14:24:53;;;;;;;1.53;0.47;;;16.00;97.80;;;;;;4863302;29;20216;-74
2023/04/14 14:27:20;;;;;;;1.40;0.20;;;16.00;97.70;;;;;;4863048;29;20255;-72
2023/04/14 14:29:47;;;;;;;0.90;0.40;;;16.10;96.70;;;;;;4863145;29;20298;-73
2023/04/14 14:32:14;;;;;;;3.03;0.50;;;16.00;97.00;;;;;;4863441;29;20208;-73
2023/04/14 14:34:42;;;;;;;0.20;0.20;;;15.70;96.00;;;;;;4863273;29;20215;-72
2023/04/14 14:37:09;;;;;;;2.40;0.80;;;15.40;97.50;;;;;;4862821;29;20774;-74
2023/04/14 14:39:37;;;;;;;1.37;0.30;;;15.50;98.10;;;;;;4862842;29;20248;-74
2023/04/14 14:42:04;;;;;;;1.13;0.40;;;15.70;97.40;;;;;;4862833;29;20218;-73
2023/04/14 14:44:31;;;;;;;1.07;0.40;;;15.70;96.60;;;;;;4862818;29;20220;-74
2023/04/14 14:46:58;;;;;;;0.30;0.30;;;15.60;97.10;;;;;;4862771;29;20292;-75
2023/04/14 14:49:25;;;;;;;1.00;0.30;;;15.70;97.60;;;;;;4862831;29;20294;-73
2023/04/14 14:51:51;;;;;;;1.13;0.40;;;15.50;97.40;;;;;;4862893;29;20215;-72
2023/04/14 14:54:18;;;;;;;0.70;0.30;;;15.50;97.70;;;;;;4862531;29;20212;-72
2023/04/14 14:56:46;;;;;;;0.70;0.40;;;15.70;98.20;;;;;;4862209;29;20615;-72
2023/04/14 14:59:15;;;;;;;1.60;0.30;;;15.60;97.50;;;;;;4862494;29;20220;-73
2023/04/14 15:01:42;;;;;;;4.20;1.03;;;15.70;97.80;;;;;;4862681;29;20239;-73
2023/04/14 15:04:09;;;;;;;1.23;0.40;;;15.80;97.10;;;;;;4862778;29;20208;-73
2023/04/14 15:06:36;;;;;;;0.50;0.30;;;15.60;97.10;;;;;;4861600;29;20255;-73
2023/04/14 15:09:04;;;;;;;2.00;0.40;;;15.70;97.50;;;;;;4862643;29;20212;-73
2023/04/14 15:11:31;;;;;;;0.40;0.20;;;15.60;97.60;;;;;;4862300;29;20239;-72
2023/04/14 15:13:59;;;;;;;1.67;0.40;;;15.70;97.50;;;;;;4862511;29;20223;-73
2023/04/14 15:16:26;;;;;;;2.00;0.40;;;15.90;97.70;;;;;;4862249;29;20238;-72
2023/04/14 15:18:53;;;;;;;0.67;0.30;;;15.70;97.20;;;;;;4862570;29;20219;-72
2023/04/14 15:21:20;;;;;;;0.90;0.23;;;15.50;97.30;;;;;;4862708;29;20710;-72
2023/04/14 15:23:46;;;;;;;0.57;0.30;;;15.20;97.20;;;;;;4862285;29;20234;-72
2023/04/14 15:26:13;;;;;;;0.73;0.30;;;15.10;97.40;;;;;;4861860;29;20212;-72
2023/04/14 15:28:40;;;;;;;0.50;0.23;;;15.20;98.50;;;;;;4861841;29;20667;-72
2023/04/14 15:31:09;;;;;;;2.93;0.40;;;15.30;97.00;;;;;;4862132;29;20276;-72
2023/04/14 15:33:36;;;;;;;0.70;0.30;;;15.10;97.60;;;;;;4861845;29;20222;-72
2023/04/14 15:36:03;;;;;;;0.43;0.27;;;15.10;97.30;;;;;;4861690;29;20223;-72
2023/04/14 15:38:30;;;;;;;1.27;0.30;;;14.90;97.60;;;;;;4861728;29;20232;-73
2023/04/14 15:40:56;;;;;;;0.47;0.20;;;14.80;97.70;;;;;;4861493;29;20244;-72
2023/04/14 15:43:23;;;;;;;0.70;0.23;;;14.90;97.80;;;;;;4861641;29;20208;-74
2023/04/14 15:45:50;;;;;;;0.60;0.40;;;14.90;97.70;;;;;;4862023;29;20594;-72
2023/04/14 15:48:18;;;;;;;2.07;0.60;;;15.00;98.00;;;;;;4861460;29;20594;-72
2023/04/14 15:50:45;;;;;;;1.40;0.37;;;15.20;97.80;;;;;;4862191;29;20212;-73
2023/04/14 15:53:12;;;;;;;1.10;0.53;;;15.20;97.70;;;;;;4861829;29;20222;-72
2023/04/14 15:55:39;;;;;;;2.67;0.33;;;15.40;97.80;;;;;;4861856;29;20247;-72
2023/04/14 15:58:05;;;;;;;1.33;0.27;;;15.10;97.60;;;;;;4862264;29;20234;-72
2023/04/14 16:00:33;;;;;;;1.93;0.30;;;14.90;98.40;;;;;;4861459;29;20239;-73
2023/04/14 16:03:01;;;;;;;0.33;0.20;;;14.90;98.20;;;;;;4861439;29;20216;-72
2023/04/14 16:05:29;;;;;;;2.90;0.50;;;14.90;98.20;;;;;;4861412;29;20288;-72
2023/04/14 16:07:56;;;;;;;0.50;0.40;;;14.90;97.90;;;;;;4861135;29;20240;-73
2023/04/14 16:10:22;;;;;;;0.83;0.23;;;14.80;98.40;;;;;;4861322;29;20222;-74
2023/04/14 16:12:49;;;;;;;0.60;0.30;;;14.60;98.10;;;;;;4861256;29;20212;-74
2023/04/14 16:15:17;;;;;;;0.77;0.20;;;14.70;98.70;;;;;;4861570;29;20216;-74
2023/04/14 16:17:44;;;;;;;1.30;0.27;;;14.80;97.50;;;;;;4861159;29;20232;-73
2023/04/14 16:20:12;;;;;;;1.10;0.27;;;14.80;97.60;;;;;;4860929;29;20707;-74
2023/04/14 16:22:40;;;;;;;0.30;0.10;;;14.70;97.70;;;;;;4861399;29;20291;-75
2023/04/14 16:25:07;;;;;;;0.70;0.43;;;14.70;98.10;;;;;;4861295;29;20212;-72
2023/04/14 16:27:34;;;;;;;0.40;0.30;;;14.70;98.30;;;;;;4860945;29;20232;-74
2023/04/14 16:30:02;;;;;;;1.30;0.40;;;14.60;98.30;;;;;;4861114;29;20306;-74
2023/04/14 16:32:29;;;;;;;1.23;0.30;;;14.70;98.30;;;;;;4861269;29;20264;-73
2023/04/14 16:34:56;;;;;;;1.30;0.30;;;14.80;98.40;;;;;;4860955;29;20576;-74
2023/04/14 16:37:24;;;;;;;0.50;0.23;;;14.80;98.10;;;;;;4861231;29;20354;-73
2023/04/14 16:39:54;;;;;;;0.63;0.30;;;14.40;98.00;;;;;;4861227;29;20583;-74
2023/04/14 16:42:23;;;;;;;0.33;0.20;;;14.30;98.40;;;;;;4860704;29;20260;-73
2023/04/14 16:44:51;;;;;;;3.20;0.30;;;14.30;98.80;;;;;;4860900;29;20281;-73
2023/04/14 16:47:18;;;;;;;0.70;0.30;;;14.30;98.90;;;;;;4860262;29;20238;-73
2023/04/14 16:49:45;;;;;;;0.40;0.30;;;14.20;98.70;;;;;;4860825;29;20219;-73
2023/04/14 16:52:11;;;;;;;0.77;0.30;;;14.10;99.10;;;;;;4860592;29;20605;-73
2023/04/14 16:54:38;;;;;;;1.13;0.30;;;14.10;99.10;;;;;;4860817;29;20219;-73
2023/04/14 16:57:07;;;;;;;0.90;0.37;;;14.00;99.40;;;;;;4855966;29;20722;-73
2023/04/14 16:59:34;;;;;;;1.80;0.50;;;14.00;99.20;;;;;;4854317;29;20208;-72
2023/04/14 17:02:00;;;;;;;2.30;0.30;;;13.90;99.00;;;;;;4859294;29;20667;-72
2023/04/14 17:04:27;;;;;;;0.70;0.30;;;13.80;99.20;;;;;;4858526;29;20319;-72
2023/04/14 17:06:54;;;;;;;0.30;0.30;;;13.70;99.40;;;;;;4856509;29;20254;-71
2023/04/14 17:09:22;;;;;;;2.13;0.40;;;13.60;99.40;;;;;;4859166;29;20216;-71
2023/04/14 17:11:48;;;;;;;0.43;0.20;;;13.70;99.90;;;;;;4859182;29;20268;-70
2023/04/14 17:14:17;;;;;;;1.20;0.30;;;13.70;99.60;;;;;;4859270;29;20212;-73
2023/04/14 17:16:44;;;;;;;2.80;0.33;;;13.80;99.80;;;;;;4859411;29;20751;-72
2023/04/14 17:19:10;;;;;;;0.53;0.23;;;13.70;99.60;;;;;;4856153;29;20208;-74
2023/04/14 17:21:38;;;;;;;1.90;0.50;;;13.80;99.90;;;;;;4856959;29;20240;-73
2023/04/14 17:24:05;;;;;;;0.50;0.30;;;13.80;99.90;;;;;;4859354;29;20208;-73
2023/04/14 17:26:32;;;;;;;1.07;0.40;;;13.70;99.80;;;;;;4858776;29;20236;-72
2023/04/14 17:28:59;;;;;;;1.00;0.50;;;13.80;99.90;;;;;;4859784;29;20694;-73
2023/04/14 17:31:27;;;;;;;0.70;0.33;;;13.80;99.70;;;;;;4863172;29;20234;-74
2023/04/14 17:33:54;;;;;;;1.03;0.40;;;13.80;99.90;;;;;;4864412;29;20215;-75
2023/04/14 17:36:21;;;;;;;0.60;0.30;;;13.80;99.90;;;;;;4863927;29;20557;-73
2023/04/14 17:38:48;;;;;;;2.47;0.60;;;13.80;99.90;;;;;;4864126;29;20211;-73
2023/04/14 17:41:15;;;;;;;1.43;0.50;;;13.80;99.90;;;;;;4863811;29;20722;-73
2023/04/14 17:43:42;;;;;;;1.63;0.73;;;13.80;99.90;;;;;;4863951;29;20303;-73
2023/04/14 17:46:09;;;;;;;1.77;0.70;;;13.80;99.90;;;;;;4864008;29;20215;-73
2023/04/14 17:48:37;;;;;;;3.90;0.90;;;13.80;99.90;;;;;;4864001;29;20221;-73
2023/04/14 17:51:05;;;;;;;2.07;0.77;;;13.80;99.90;;;;;;4863997;29;20306;-73
2023/04/14 17:53:32;;;;;;;2.27;0.70;;;13.80;99.90;;;;;;4863938;29;20218;-73
2023/04/14 17:55:59;;;;;;;1.83;1.07;;;13.80;99.90;;;;;;4863628;29;20215;-73
2023/04/14 17:58:26;;;;;;;3.07;0.80;;;13.60;99.90;;;;;;4863480;29;20263;-73
2023/04/14 18:00:53;;;;;;;1.23;0.83;;;13.60;99.90;;;;;;4863676;29;20243;-72
2023/04/14 18:03:20;;;;;;;1.50;1.00;;;13.60;99.90;;;;;;4863661;29;20223;-72
2023/04/14 18:05:49;;;;;;;1.57;0.87;;;13.60;99.90;;;;;;4863403;29;20212;-73
2023/04/14 18:08:16;;;;;;;1.83;1.00;;;13.60;99.90;;;;;;4863500;29;20236;-73
2023/04/14 18:10:43;;;;;;;3.07;0.80;;;13.60;99.90;;;;;;4863334;29;20219;-73
2023/04/14 18:13:11;;;;;;;1.47;0.90;;;13.60;99.90;;;;;;4862564;29;20223;-73
2023/04/14 18:15:40;;;;;;;1.80;0.80;;;13.50;99.90;;;;;;4863118;29;20216;-73
2023/04/14 18:18:07;;;;;;;1.87;0.70;;;13.50;99.90;;;;;;4863080;29;20595;-72
2023/04/14 18:20:34;;;;;;;1.70;1.10;;;13.50;99.90;;;;;;4862495;29;20308;-73
2023/04/14 18:23:04;;;;;;;2.07;0.90;;;13.50;99.90;;;;;;4850926;29;20239;-72
2023/04/14 18:25:31;;;;;;;2.53;0.93;;;13.50;99.90;;;;;;4861096;29;20212;-73
2023/04/14 18:27:58;;;;;;;3.33;0.97;;;13.30;99.90;;;;;;4860636;29;20228;-73
2023/04/14 18:30:25;;;;;;;1.80;0.70;;;13.30;99.90;;;;;;4861334;29;20608;-72
2023/04/14 18:32:52;;;;;;;1.33;0.80;;;13.30;99.90;;;;;;4861806;29;20209;-72
2023/04/14 18:35:19;;;;;;;1.40;0.73;;;13.30;99.90;;;;;;4861236;29;20260;-72
2023/04/14 18:37:46;;;;;;;2.30;0.93;;;13.30;99.90;;;;;;4860689;29;20226;-71
2023/04/14 18:40:14;;;;;;;1.97;0.67;;;13.30;99.90;;;;;;4860785;29;20214;-73
2023/04/14 18:42:41;;;;;;;1.73;0.80;;;13.20;99.90;;;;;;4861228;29;20707;-72
2023/04/14 18:45:09;;;;;;;2.40;1.00;;;13.20;99.90;;;;;;4861219;29;20204;-73
2023/04/14 18:47:35;;;;;;;1.30;0.70;;;13.10;99.90;;;;;;4866654;29;20223;-73
2023/04/14 18:50:04;;;;;;;2.50;0.80;;;13.00;99.90;;;;;;4866201;29;20218;-73
2023/04/14 18:52:31;;;;;;;3.77;0.97;;;13.00;99.90;;;;;;4867035;29;20227;-73
2023/04/14 18:54:57;;;;;;;2.60;0.90;;;13.00;99.90;;;;;;4867892;29;20570;-74
2023/04/14 18:57:27;;;;;;;5.00;1.10;;;13.00;99.90;;;;;;4867724;29;20234;-73
2023/04/14 18:59:54;;;;;;;1.77;0.70;;;12.90;99.90;;;;;;4867772;29;20246;-73
2023/04/14 19:02:21;;;;;;;1.73;0.90;;;12.90;99.90;;;;;;4867796;29;20239;-73
2023/04/14 19:04:48;;;;;;;2.07;1.13;;;12.80;99.90;;;;;;4867885;29;20222;-73
2023/04/14 19:07:15;;;;;;;3.03;1.03;;;12.80;99.90;;;;;;4864158;29;20242;-73
2023/04/14 19:09:42;;;;;;;2.63;0.90;;;12.80;99.90;;;;;;4863644;29;20219;-74
2023/04/14 19:12:10;;;;;;;2.33;1.27;;;12.80;99.90;;;;;;4863492;29;20208;-73
2023/04/14 19:14:38;;;;;;;4.07;1.00;;;12.80;99.90;;;;;;4863736;29;20264;-74
2023/04/14 19:17:05;;;;;;;3.07;1.30;;;12.80;99.90;;;;;;4863715;29;20250;-73
2023/04/14 19:19:33;;;;;;;4.10;1.63;;;12.70;99.90;;;;;;4863563;29;20208;-73
2023/04/14 19:22:00;;;;;;;6.43;1.80;;;12.70;99.90;;;;;;4863187;29;20738;-73
2023/04/14 19:24:27;;;;;;;3.77;1.80;;;12.60;99.90;;;;;;4863762;29;20215;-73
2023/04/14 19:26:55;;;;;;;4.70;2.10;;;12.60;99.90;;;;;;4863129;29;20227;-73
2023/04/14 19:29:22;;;;;;;3.10;1.70;;;12.50;99.90;;;;;;4863550;29;20664;-73
2023/04/14 19:31:50;;;;;;;6.23;1.57;;;12.50;99.90;;;;;;4862124;29;20224;-73
2023/04/14 19:34:17;;;;;;;4.20;1.80;;;12.50;99.90;;;;;;4862000;29;20683;-73
2023/04/14 19:36:45;;;;;;;5.07;1.63;;;12.60;99.90;;;;;;4862503;29;20228;-73
2023/04/14 19:39:12;;;;;;;2.37;1.10;;;12.40;99.90;;;;;;4862268;29;20216;-73
2023/04/14 19:41:39;;;;;;;3.97;1.33;;;12.50;99.90;;;;;;4862019;29;20239;-73
2023/04/14 19:44:06;;;;;;;4.70;1.87;;;12.50;99.90;;;;;;4861862;29;20220;-73
2023/04/14 19:46:35;;;;;;;6.43;1.93;;;12.50;99.90;;;;;;4862262;29;20751;-73
2023/04/14 19:49:03;;;;;;;4.27;2.00;;;12.40;99.90;;;;;;4862534;29;20219;-73
2023/04/14 19:51:30;;;;;;;3.47;1.50;;;12.40;99.90;;;;;;4861778;29;20572;-73
2023/04/14 19:53:57;;;;;;;3.17;1.70;;;12.50;99.90;;;;;;4861786;29;20683;-73
2023/04/14 19:56:24;;;;;;;2.77;1.53;;;12.50;99.90;;;;;;4861679;29;20208;-73
2023/04/14 19:58:52;;;;;;;4.67;1.73;;;12.50;99.90;;;;;;4862098;29;20212;-73
2023/04/14 20:01:20;;;;;;;2.77;1.20;;;12.50;99.90;;;;;;4861380;29;20323;-73
2023/04/14 20:03:47;;;;;;;2.50;1.20;;;12.50;99.90;;;;;;4861930;29;20256;-73
2023/04/14 20:06:15;;;;;;;2.13;1.30;;;12.40;99.90;;;;;;4861536;29;20668;-73
2023/04/14 20:08:42;;;;;;;2.57;1.30;;;12.40;99.90;;;;;;4861470;29;20216;-73
2023/04/14 20:11:09;;;;;;;2.57;1.27;;;12.40;99.90;;;;;;4861229;29;20210;-73
2023/04/14 20:13:37;;;;;;;4.73;1.70;;;12.40;99.90;;;;;;4861162;29;20216;-73
2023/04/14 20:16:04;;;;;;;5.33;1.83;;;12.40;99.90;;;;;;4861208;29;20272;-73
2023/04/14 20:18:32;;;;;;;2.97;1.60;;;12.30;99.90;;;;;;4861489;29;20223;-73
2023/04/14 20:20:59;;;;;;;3.47;1.70;;;12.30;99.90;;;;;;4861284;29;20219;-73
2023/04/14 20:23:27;;;;;;;5.53;2.07;;;12.30;99.90;;;;;;4861273;29;20228;-73
2023/04/14 20:25:55;;;;;;;6.07;2.73;;;12.30;99.90;;;;;;4861039;29;20216;-73
2023/04/14 20:28:22;;;;;;;3.93;2.00;;;12.20;99.90;;;;;;4860891;29;20232;-73
2023/04/14 20:30:51;;;;;;;5.60;2.73;;;12.20;99.90;;;;;;4861053;29;20214;-73